sensor_id;sensor_type;location;lat;lon;timestamp;pressure;altitude;pressure_sealevel;temperature
72278;BMP280;61204;49.980;8.358;2023-03-04T00:01:53;101365.88;;;-0.22
72278;BMP280;61204;49.980;8.358;2023-03-04T00:04:18;101370.72;;;-0.27
72278;BMP280;61204;49.980;8.358;2023-03-04T00:06:44;101369.72;;;-0.29
72278;BMP280;61204;49.980;8.358;2023-03-04T00:09:09;101366.69;;;-0.37
72278;BMP280;61204;49.980;8.358;2023-03-04T00:11:37;101366.91;;;-0.40
72278;BMP280;61204;49.980;8.358;2023-03-04T00:14:02;101367.63;;;-0.40
72278;BMP280;61204;49.980;8.358;2023-03-04T00:16:28;101370.75;;;-0.47
72278;BMP280;61204;49.980;8.358;2023-03-04T00:18:56;101369.94;;;-0.53
72278;BMP280;61204;49.980;8.358;2023-03-04T00:21:22;101370.63;;;-0.58
72278;BMP280;61204;49.980;8.358;2023-03-04T00:23:48;101374.28;;;-0.61
72278;BMP280;61204;49.980;8.358;2023-03-04T00:26:15;101362.72;;;-0.67
72278;BMP280;61204;49.980;8.358;2023-03-04T00:28:41;101359.94;;;-0.73
72278;BMP280;61204;49.980;8.358;2023-03-04T00:31:07;101362.41;;;-0.75
72278;BMP280;61204;49.980;8.358;2023-03-04T00:33:33;101362.59;;;-0.79
72278;BMP280;61204;49.980;8.358;2023-03-04T00:35:59;101365.28;;;-0.79
72278;BMP280;61204;49.980;8.358;2023-03-04T00:38:26;101352.16;;;-0.71
72278;BMP280;61204;49.980;8.358;2023-03-04T00:40:52;101349.72;;;-0.69
72278;BMP280;61204;49.980;8.358;2023-03-04T00:43:17;101362.19;;;-0.71
72278;BMP280;61204;49.980;8.358;2023-03-04T00:45:43;101354.38;;;-0.69
72278;BMP280;61204;49.980;8.358;2023-03-04T00:48:09;101343.59;;;-0.69
72278;BMP280;61204;49.980;8.358;2023-03-04T00:50:40;101349.47;;;-0.71
72278;BMP280;61204;49.980;8.358;2023-03-04T00:53:09;101347.91;;;-0.78
72278;BMP280;61204;49.980;8.358;2023-03-04T00:55:35;101343.00;;;-0.79
72278;BMP280;61204;49.980;8.358;2023-03-04T00:58:01;101344.41;;;-0.84
72278;BMP280;61204;49.980;8.358;2023-03-04T01:00:27;101343.88;;;-0.88
72278;BMP280;61204;49.980;8.358;2023-03-04T01:02:53;101339.72;;;-0.89
72278;BMP280;61204;49.980;8.358;2023-03-04T01:05:18;101341.13;;;-0.93
72278;BMP280;61204;49.980;8.358;2023-03-04T01:07:44;101330.56;;;-0.97
72278;BMP280;61204;49.980;8.358;2023-03-04T01:10:10;101339.59;;;-1.00
72278;BMP280;61204;49.980;8.358;2023-03-04T01:12:38;101342.22;;;-1.06
72278;BMP280;61204;49.980;8.358;2023-03-04T01:15:05;101334.34;;;-1.09
72278;BMP280;61204;49.980;8.358;2023-03-04T01:17:37;101339.88;;;-1.18
72278;BMP280;61204;49.980;8.358;2023-03-04T01:20:03;101328.31;;;-1.25
72278;BMP280;61204;49.980;8.358;2023-03-04T01:22:31;101327.00;;;-1.29
72278;BMP280;61204;49.980;8.358;2023-03-04T01:24:57;101336.94;;;-1.35
72278;BMP280;61204;49.980;8.358;2023-03-04T01:27:25;101329.06;;;-1.39
72278;BMP280;61204;49.980;8.358;2023-03-04T01:29:50;101320.47;;;-1.43
72278;BMP280;61204;49.980;8.358;2023-03-04T01:32:16;101318.97;;;-1.44
72278;BMP280;61204;49.980;8.358;2023-03-04T01:34:44;101307.00;;;-1.43
72278;BMP280;61204;49.980;8.358;2023-03-04T01:37:10;101304.03;;;-1.45
72278;BMP280;61204;49.980;8.358;2023-03-04T01:39:40;101304.53;;;-1.47
72278;BMP280;61204;49.980;8.358;2023-03-04T01:42:06;101305.06;;;-1.42
72278;BMP280;61204;49.980;8.358;2023-03-04T01:44:45;101293.75;;;-1.47
72278;BMP280;61204;49.980;8.358;2023-03-04T01:47:12;101298.66;;;-1.45
72278;BMP280;61204;49.980;8.358;2023-03-04T01:49:38;101291.00;;;-1.52
72278;BMP280;61204;49.980;8.358;2023-03-04T01:52:04;101295.44;;;-1.70
72278;BMP280;61204;49.980;8.358;2023-03-04T01:54:36;101301.72;;;-1.73
72278;BMP280;61204;49.980;8.358;2023-03-04T01:57:01;101292.31;;;-1.83
72278;BMP280;61204;49.980;8.358;2023-03-04T01:59:39;101290.44;;;-1.91
72278;BMP280;61204;49.980;8.358;2023-03-04T02:02:05;101290.34;;;-1.97
72278;BMP280;61204;49.980;8.358;2023-03-04T02:04:31;101284.91;;;-2.03
72278;BMP280;61204;49.980;8.358;2023-03-04T02:06:58;101284.16;;;-2.03
72278;BMP280;61204;49.980;8.358;2023-03-04T02:09:27;101279.53;;;-2.03
72278;BMP280;61204;49.980;8.358;2023-03-04T02:11:55;101273.28;;;-1.94
72278;BMP280;61204;49.980;8.358;2023-03-04T02:14:21;101275.03;;;-1.76
72278;BMP280;61204;49.980;8.358;2023-03-04T02:16:47;101264.34;;;-1.71
72278;BMP280;61204;49.980;8.358;2023-03-04T02:22:32;101259.25;;;-1.68
72278;BMP280;61204;49.980;8.358;2023-03-04T02:25:08;101261.00;;;-1.65
72278;BMP280;61204;49.980;8.358;2023-03-04T02:27:42;101258.22;;;-1.71
72278;BMP280;61204;49.980;8.358;2023-03-04T02:30:09;101257.88;;;-1.79
72278;BMP280;61204;49.980;8.358;2023-03-04T02:32:44;101261.53;;;-1.82
72278;BMP280;61204;49.980;8.358;2023-03-04T02:35:13;101258.09;;;-1.82
72278;BMP280;61204;49.980;8.358;2023-03-04T02:37:44;101255.69;;;-1.80
72278;BMP280;61204;49.980;8.358;2023-03-04T02:40:13;101250.66;;;-1.73
72278;BMP280;61204;49.980;8.358;2023-03-04T02:42:46;101245.59;;;-1.65
72278;BMP280;61204;49.980;8.358;2023-03-04T02:47:59;101234.31;;;-1.69
72278;BMP280;61204;49.980;8.358;2023-03-04T02:50:25;101234.78;;;-1.71
72278;BMP280;61204;49.980;8.358;2023-03-04T02:53:01;101237.19;;;-1.73
72278;BMP280;61204;49.980;8.358;2023-03-04T02:55:27;101227.66;;;-1.74
72278;BMP280;61204;49.980;8.358;2023-03-04T02:57:53;101237.41;;;-1.76
72278;BMP280;61204;49.980;8.358;2023-03-04T03:00:19;101224.84;;;-1.85
72278;BMP280;61204;49.980;8.358;2023-03-04T03:02:45;101230.84;;;-1.90
72278;BMP280;61204;49.980;8.358;2023-03-04T03:05:11;101227.59;;;-1.94
72278;BMP280;61204;49.980;8.358;2023-03-04T03:07:37;101231.97;;;-1.97
72278;BMP280;61204;49.980;8.358;2023-03-04T03:10:02;101229.94;;;-2.02
72278;BMP280;61204;49.980;8.358;2023-03-04T03:12:29;101223.28;;;-2.06
72278;BMP280;61204;49.980;8.358;2023-03-04T03:14:54;101225.16;;;-2.12
72278;BMP280;61204;49.980;8.358;2023-03-04T03:17:20;101225.81;;;-2.18
72278;BMP280;61204;49.980;8.358;2023-03-04T03:19:45;101226.00;;;-2.21
72278;BMP280;61204;49.980;8.358;2023-03-04T03:22:11;101220.63;;;-2.21
72278;BMP280;61204;49.980;8.358;2023-03-04T03:24:36;101220.44;;;-2.18
72278;BMP280;61204;49.980;8.358;2023-03-04T03:27:02;101220.06;;;-2.10
72278;BMP280;61204;49.980;8.358;2023-03-04T03:29:27;101217.91;;;-2.06
72278;BMP280;61204;49.980;8.358;2023-03-04T03:31:53;101210.13;;;-2.04
72278;BMP280;61204;49.980;8.358;2023-03-04T03:34:18;101214.50;;;-2.07
72278;BMP280;61204;49.980;8.358;2023-03-04T03:36:43;101208.25;;;-1.98
72278;BMP280;61204;49.980;8.358;2023-03-04T03:39:09;101210.75;;;-1.95
72278;BMP280;61204;49.980;8.358;2023-03-04T03:41:35;101204.91;;;-1.93
72278;BMP280;61204;49.980;8.358;2023-03-04T03:44:00;101203.16;;;-1.96
72278;BMP280;61204;49.980;8.358;2023-03-04T03:46:26;101199.94;;;-2.00
72278;BMP280;61204;49.980;8.358;2023-03-04T03:48:51;101203.53;;;-2.03
72278;BMP280;61204;49.980;8.358;2023-03-04T03:51:16;101197.88;;;-2.05
72278;BMP280;61204;49.980;8.358;2023-03-04T03:53:42;101200.56;;;-2.05
72278;BMP280;61204;49.980;8.358;2023-03-04T03:56:07;101195.47;;;-2.03
72278;BMP280;61204;49.980;8.358;2023-03-04T03:58:33;101193.59;;;-1.97
72278;BMP280;61204;49.980;8.358;2023-03-04T04:00:58;101186.09;;;-1.93
72278;BMP280;61204;49.980;8.358;2023-03-04T04:03:24;101191.66;;;-1.97
72278;BMP280;61204;49.980;8.358;2023-03-04T04:05:49;101201.66;;;-1.97
72278;BMP280;61204;49.980;8.358;2023-03-04T04:08:15;101186.75;;;-1.98
72278;BMP280;61204;49.980;8.358;2023-03-04T04:10:42;101185.81;;;-1.95
72278;BMP280;61204;49.980;8.358;2023-03-04T04:13:08;101186.34;;;-1.91
72278;BMP280;61204;49.980;8.358;2023-03-04T04:15:34;101183.00;;;-1.86
72278;BMP280;61204;49.980;8.358;2023-03-04T04:18:00;101195.31;;;-1.79
72278;BMP280;61204;49.980;8.358;2023-03-04T04:20:26;101193.91;;;-1.75
72278;BMP280;61204;49.980;8.358;2023-03-04T04:22:54;101195.44;;;-1.68
72278;BMP280;61204;49.980;8.358;2023-03-04T04:25:20;101195.06;;;-1.61
72278;BMP280;61204;49.980;8.358;2023-03-04T04:27:45;101196.59;;;-1.54
72278;BMP280;61204;49.980;8.358;2023-03-04T04:30:11;101190.31;;;-1.46
72278;BMP280;61204;49.980;8.358;2023-03-04T04:32:37;101194.56;;;-1.39
72278;BMP280;61204;49.980;8.358;2023-03-04T04:35:02;101200.75;;;-1.33
72278;BMP280;61204;49.980;8.358;2023-03-04T04:37:28;101191.00;;;-1.30
72278;BMP280;61204;49.980;8.358;2023-03-04T04:39:54;101198.88;;;-1.27
72278;BMP280;61204;49.980;8.358;2023-03-04T04:42:20;101191.31;;;-1.23
72278;BMP280;61204;49.980;8.358;2023-03-04T04:44:46;101196.03;;;-1.17
72278;BMP280;61204;49.980;8.358;2023-03-04T04:47:12;101205.31;;;-1.18
72278;BMP280;61204;49.980;8.358;2023-03-04T04:49:37;101207.06;;;-1.15
72278;BMP280;61204;49.980;8.358;2023-03-04T04:52:03;101202.19;;;-1.11
72278;BMP280;61204;49.980;8.358;2023-03-04T04:54:29;101203.44;;;-1.07
72278;BMP280;61204;49.980;8.358;2023-03-04T04:56:55;101201.56;;;-1.01
72278;BMP280;61204;49.980;8.358;2023-03-04T04:59:20;101198.69;;;-0.91
72278;BMP280;61204;49.980;8.358;2023-03-04T05:01:46;101202.69;;;-0.87
72278;BMP280;61204;49.980;8.358;2023-03-04T05:04:12;101204.59;;;-0.87
72278;BMP280;61204;49.980;8.358;2023-03-04T05:06:40;101206.78;;;-0.91
72278;BMP280;61204;49.980;8.358;2023-03-04T05:09:05;101219.50;;;-0.92
72278;BMP280;61204;49.980;8.358;2023-03-04T05:11:31;101218.31;;;-0.91
72278;BMP280;61204;49.980;8.358;2023-03-04T05:13:57;101211.22;;;-0.88
72278;BMP280;61204;49.980;8.358;2023-03-04T05:16:23;101201.69;;;-0.84
72278;BMP280;61204;49.980;8.358;2023-03-04T05:18:48;101203.44;;;-0.81
72278;BMP280;61204;49.980;8.358;2023-03-04T05:21:14;101201.25;;;-0.82
72278;BMP280;61204;49.980;8.358;2023-03-04T05:23:42;101200.50;;;-0.83
72278;BMP280;61204;49.980;8.358;2023-03-04T05:26:08;101203.19;;;-0.83
72278;BMP280;61204;49.980;8.358;2023-03-04T05:28:39;101204.41;;;-0.84
72278;BMP280;61204;49.980;8.358;2023-03-04T05:31:05;101197.81;;;-0.83
72278;BMP280;61204;49.980;8.358;2023-03-04T05:33:31;101204.91;;;-0.80
72278;BMP280;61204;49.980;8.358;2023-03-04T05:35:57;101196.63;;;-0.76
72278;BMP280;61204;49.980;8.358;2023-03-04T05:38:23;101193.25;;;-0.71
72278;BMP280;61204;49.980;8.358;2023-03-04T05:40:54;101198.66;;;-0.65
72278;BMP280;61204;49.980;8.358;2023-03-04T05:43:25;101202.16;;;-0.59
72278;BMP280;61204;49.980;8.358;2023-03-04T05:45:52;101195.31;;;-0.55
72278;BMP280;61204;49.980;8.358;2023-03-04T05:48:19;101201.97;;;-0.50
72278;BMP280;61204;49.980;8.358;2023-03-04T05:50:44;101213.47;;;-0.50
72278;BMP280;61204;49.980;8.358;2023-03-04T05:53:12;101208.56;;;-0.51
72278;BMP280;61204;49.980;8.358;2023-03-04T05:55:38;101209.09;;;-0.47
72278;BMP280;61204;49.980;8.358;2023-03-04T05:58:03;101209.38;;;-0.45
72278;BMP280;61204;49.980;8.358;2023-03-04T06:00:28;101210.84;;;-0.44
72278;BMP280;61204;49.980;8.358;2023-03-04T06:02:54;101205.97;;;-0.40
72278;BMP280;61204;49.980;8.358;2023-03-04T06:05:19;101212.59;;;-0.35
72278;BMP280;61204;49.980;8.358;2023-03-04T06:07:46;101203.59;;;-0.32
72278;BMP280;61204;49.980;8.358;2023-03-04T06:10:13;101216.84;;;-0.29
72278;BMP280;61204;49.980;8.358;2023-03-04T06:12:42;101216.63;;;-0.25
72278;BMP280;61204;49.980;8.358;2023-03-04T06:15:08;101212.47;;;-0.20
72278;BMP280;61204;49.980;8.358;2023-03-04T06:17:34;101224.72;;;-0.19
72278;BMP280;61204;49.980;8.358;2023-03-04T06:20:03;101214.94;;;-0.17
72278;BMP280;61204;49.980;8.358;2023-03-04T06:22:33;101219.59;;;-0.17
72278;BMP280;61204;49.980;8.358;2023-03-04T06:24:59;101235.06;;;-0.12
72278;BMP280;61204;49.980;8.358;2023-03-04T06:27:25;101236.56;;;-0.11
72278;BMP280;61204;49.980;8.358;2023-03-04T06:29:51;101237.31;;;-0.11
72278;BMP280;61204;49.980;8.358;2023-03-04T06:32:17;101236.81;;;-0.09
72278;BMP280;61204;49.980;8.358;2023-03-04T06:34:43;101237.06;;;-0.07
72278;BMP280;61204;49.980;8.358;2023-03-04T06:37:08;101236.63;;;0.00
72278;BMP280;61204;49.980;8.358;2023-03-04T06:39:34;101244.25;;;0.07
72278;BMP280;61204;49.980;8.358;2023-03-04T06:42:00;101248.00;;;0.15
72278;BMP280;61204;49.980;8.358;2023-03-04T06:44:26;101250.69;;;0.21
72278;BMP280;61204;49.980;8.358;2023-03-04T06:46:51;101252.16;;;0.22
72278;BMP280;61204;49.980;8.358;2023-03-04T06:49:16;101258.56;;;0.24
72278;BMP280;61204;49.980;8.358;2023-03-04T06:51:42;101261.25;;;0.24
72278;BMP280;61204;49.980;8.358;2023-03-04T06:54:08;101258.13;;;0.32
72278;BMP280;61204;49.980;8.358;2023-03-04T06:56:34;101266.19;;;0.37
72278;BMP280;61204;49.980;8.358;2023-03-04T06:59:00;101266.69;;;0.41
72278;BMP280;61204;49.980;8.358;2023-03-04T07:01:26;101268.69;;;0.46
72278;BMP280;61204;49.980;8.358;2023-03-04T07:03:53;101274.38;;;0.54
72278;BMP280;61204;49.980;8.358;2023-03-04T07:06:21;101273.91;;;0.61
72278;BMP280;61204;49.980;8.358;2023-03-04T07:08:52;101281.28;;;0.66
72278;BMP280;61204;49.980;8.358;2023-03-04T07:11:18;101278.63;;;0.72
72278;BMP280;61204;49.980;8.358;2023-03-04T07:13:46;101288.19;;;0.79
72278;BMP280;61204;49.980;8.358;2023-03-04T07:16:13;101292.41;;;0.85
72278;BMP280;61204;49.980;8.358;2023-03-04T07:18:42;101288.97;;;0.90
72278;BMP280;61204;49.980;8.358;2023-03-04T07:21:10;101296.34;;;0.95
72278;BMP280;61204;49.980;8.358;2023-03-04T07:23:38;101300.06;;;1.04
72278;BMP280;61204;49.980;8.358;2023-03-04T07:26:04;101303.50;;;1.10
72278;BMP280;61204;49.980;8.358;2023-03-04T07:28:31;101302.53;;;1.13
72278;BMP280;61204;49.980;8.358;2023-03-04T07:30:56;101298.88;;;1.21
72278;BMP280;61204;49.980;8.358;2023-03-04T07:33:45;101310.91;;;1.32
72278;BMP280;61204;49.980;8.358;2023-03-04T07:36:11;101309.16;;;1.40
72278;BMP280;61204;49.980;8.358;2023-03-04T07:38:41;101317.06;;;1.49
72278;BMP280;61204;49.980;8.358;2023-03-04T07:41:09;101316.06;;;1.58
72278;BMP280;61204;49.980;8.358;2023-03-04T07:43:34;101319.75;;;1.66
72278;BMP280;61204;49.980;8.358;2023-03-04T07:46:00;101317.56;;;1.76
72278;BMP280;61204;49.980;8.358;2023-03-04T07:48:26;101315.31;;;1.85
72278;BMP280;61204;49.980;8.358;2023-03-04T07:51:06;101321.19;;;1.95
72278;BMP280;61204;49.980;8.358;2023-03-04T07:53:37;101322.91;;;2.04
72278;BMP280;61204;49.980;8.358;2023-03-04T07:56:05;101330.78;;;2.13
72278;BMP280;61204;49.980;8.358;2023-03-04T07:58:35;101329.25;;;2.23
72278;BMP280;61204;49.980;8.358;2023-03-04T08:01:00;101331.69;;;2.32
72278;BMP280;61204;49.980;8.358;2023-03-04T08:03:32;101336.09;;;2.41
72278;BMP280;61204;49.980;8.358;2023-03-04T08:05:57;101333.59;;;2.48
72278;BMP280;61204;49.980;8.358;2023-03-04T08:08:22;101336.28;;;2.60
72278;BMP280;61204;49.980;8.358;2023-03-04T08:10:48;101336.00;;;2.69
72278;BMP280;61204;49.980;8.358;2023-03-04T08:13:13;101336.69;;;2.81
72278;BMP280;61204;49.980;8.358;2023-03-04T08:15:40;101341.56;;;2.88
72278;BMP280;61204;49.980;8.358;2023-03-04T08:18:07;101336.06;;;2.99
72278;BMP280;61204;49.980;8.358;2023-03-04T08:20:32;101338.72;;;3.10
72278;BMP280;61204;49.980;8.358;2023-03-04T08:22:58;101341.59;;;3.23
72278;BMP280;61204;49.980;8.358;2023-03-04T08:25:23;101352.34;;;3.35
72278;BMP280;61204;49.980;8.358;2023-03-04T08:27:51;101360.16;;;3.44
72278;BMP280;61204;49.980;8.358;2023-03-04T08:30:16;101359.84;;;3.53
72278;BMP280;61204;49.980;8.358;2023-03-04T08:32:42;101359.25;;;3.66
72278;BMP280;61204;49.980;8.358;2023-03-04T08:35:07;101366.50;;;3.82
72278;BMP280;61204;49.980;8.358;2023-03-04T08:37:33;101371.91;;;3.88
72278;BMP280;61204;49.980;8.358;2023-03-04T08:39:58;101374.56;;;3.93
72278;BMP280;61204;49.980;8.358;2023-03-04T08:42:24;101383.81;;;4.04
72278;BMP280;61204;49.980;8.358;2023-03-04T08:44:49;101379.09;;;4.10
72278;BMP280;61204;49.980;8.358;2023-03-04T08:47:15;101383.66;;;4.20
72278;BMP280;61204;49.980;8.358;2023-03-04T08:49:40;101393.91;;;4.33
72278;BMP280;61204;49.980;8.358;2023-03-04T08:52:06;101394.09;;;4.35
72278;BMP280;61204;49.980;8.358;2023-03-04T08:54:34;101401.84;;;4.50
72278;BMP280;61204;49.980;8.358;2023-03-04T08:56:59;101399.56;;;4.54
72278;BMP280;61204;49.980;8.358;2023-03-04T08:59:25;101409.63;;;4.59
72278;BMP280;61204;49.980;8.358;2023-03-04T09:01:50;101406.13;;;4.64
72278;BMP280;61204;49.980;8.358;2023-03-04T09:04:15;101401.38;;;4.70
72278;BMP280;61204;49.980;8.358;2023-03-04T09:06:41;101412.38;;;4.78
72278;BMP280;61204;49.980;8.358;2023-03-04T09:09:08;101405.69;;;4.79
72278;BMP280;61204;49.980;8.358;2023-03-04T09:11:34;101404.59;;;4.88
72278;BMP280;61204;49.980;8.358;2023-03-04T09:14:00;101413.94;;;4.92
72278;BMP280;61204;49.980;8.358;2023-03-04T09:16:25;101410.09;;;5.01
72278;BMP280;61204;49.980;8.358;2023-03-04T09:18:51;101410.41;;;4.97
72278;BMP280;61204;49.980;8.358;2023-03-04T09:21:16;101413.03;;;5.03
72278;BMP280;61204;49.980;8.358;2023-03-04T09:23:41;101407.75;;;5.11
72278;BMP280;61204;49.980;8.358;2023-03-04T09:26:14;101407.44;;;5.14
72278;BMP280;61204;49.980;8.358;2023-03-04T09:28:53;101413.25;;;5.24
72278;BMP280;61204;49.980;8.358;2023-03-04T09:31:22;101419.13;;;5.28
72278;BMP280;61204;49.980;8.358;2023-03-04T09:33:49;101418.53;;;5.48
72278;BMP280;61204;49.980;8.358;2023-03-04T09:36:16;101415.81;;;5.48
72278;BMP280;61204;49.980;8.358;2023-03-04T09:38:42;101406.97;;;5.61
72278;BMP280;61204;49.980;8.358;2023-03-04T09:41:08;101419.31;;;5.62
72278;BMP280;61204;49.980;8.358;2023-03-04T09:43:51;101420.91;;;5.71
72278;BMP280;61204;49.980;8.358;2023-03-04T09:46:25;101413.19;;;5.75
72278;BMP280;61204;49.980;8.358;2023-03-04T09:48:58;101409.72;;;5.74
72278;BMP280;61204;49.980;8.358;2023-03-04T09:57:14;101411.97;;;5.89
72278;BMP280;61204;49.980;8.358;2023-03-04T09:59:53;101411.56;;;5.98
72278;BMP280;61204;49.980;8.358;2023-03-04T10:05:05;101411.03;;;6.26
72278;BMP280;61204;49.980;8.358;2023-03-04T10:07:37;101413.63;;;6.32
72278;BMP280;61204;49.980;8.358;2023-03-04T10:10:15;101420.84;;;6.43
72278;BMP280;61204;49.980;8.358;2023-03-04T10:12:49;101410.25;;;6.52
72278;BMP280;61204;49.980;8.358;2023-03-04T10:17:59;101413.25;;;6.62
72278;BMP280;61204;49.980;8.358;2023-03-04T10:23:34;101405.91;;;6.83
72278;BMP280;61204;49.980;8.358;2023-03-04T10:26:08;101405.91;;;6.83
72278;BMP280;61204;49.980;8.358;2023-03-04T10:28:40;101408.13;;;7.06
72278;BMP280;61204;49.980;8.358;2023-03-04T10:33:34;101405.34;;;7.19
72278;BMP280;61204;49.980;8.358;2023-03-04T10:38:34;101393.94;;;7.07
72278;BMP280;61204;49.980;8.358;2023-03-04T10:41:16;101399.66;;;6.96
72278;BMP280;61204;49.980;8.358;2023-03-04T10:43:49;101403.88;;;7.18
72278;BMP280;61204;49.980;8.358;2023-03-04T10:46:24;101411.00;;;7.21
72278;BMP280;61204;49.980;8.358;2023-03-04T10:48:51;101405.00;;;7.23
72278;BMP280;61204;49.980;8.358;2023-03-04T10:51:22;101397.19;;;7.19
72278;BMP280;61204;49.980;8.358;2023-03-04T10:54:03;101400.31;;;7.23
72278;BMP280;61204;49.980;8.358;2023-03-04T10:56:53;101397.50;;;7.16
72278;BMP280;61204;49.980;8.358;2023-03-04T11:13:05;101384.13;;;7.46
72278;BMP280;61204;49.980;8.358;2023-03-04T11:18:40;101377.84;;;7.59
72278;BMP280;61204;49.980;8.358;2023-03-04T11:21:19;101372.31;;;7.51
72278;BMP280;61204;49.980;8.358;2023-03-04T11:26:32;101372.41;;;7.38
72278;BMP280;61204;49.980;8.358;2023-03-04T11:29:16;101368.47;;;7.47
72278;BMP280;61204;49.980;8.358;2023-03-04T11:31:54;101364.34;;;7.53
72278;BMP280;61204;49.980;8.358;2023-03-04T11:34:49;101365.78;;;7.54
72278;BMP280;61204;49.980;8.358;2023-03-04T11:38:28;101362.78;;;7.66
72278;BMP280;61204;49.980;8.358;2023-03-04T11:40:53;101360.97;;;7.68
72278;BMP280;61204;49.980;8.358;2023-03-04T11:43:38;101352.47;;;7.51
72278;BMP280;61204;49.980;8.358;2023-03-04T12:03:55;101341.22;;;7.54
72278;BMP280;61204;49.980;8.358;2023-03-04T12:15:18;101332.22;;;7.38
72278;BMP280;61204;49.980;8.358;2023-03-04T12:29:45;101311.25;;;7.62
72278;BMP280;61204;49.980;8.358;2023-03-04T12:35:40;101311.47;;;7.35
72278;BMP280;61204;49.980;8.358;2023-03-04T12:43:53;101306.66;;;7.93
72278;BMP280;61204;49.980;8.358;2023-03-04T12:55:35;101294.50;;;8.02
72278;BMP280;61204;49.980;8.358;2023-03-04T12:58:13;101283.94;;;8.06
72278;BMP280;61204;49.980;8.358;2023-03-04T13:09:26;101262.75;;;9.04
72278;BMP280;61204;49.980;8.358;2023-03-04T13:17:42;101253.25;;;9.12
72278;BMP280;61204;49.980;8.358;2023-03-04T13:21:06;101255.94;;;9.43
72278;BMP280;61204;49.980;8.358;2023-03-04T13:23:47;101250.94;;;9.57
72278;BMP280;61204;49.980;8.358;2023-03-04T13:29:29;101244.25;;;9.35
72278;BMP280;61204;49.980;8.358;2023-03-04T13:34:45;101243.97;;;9.63
72278;BMP280;61204;49.980;8.358;2023-03-04T13:37:28;101237.19;;;9.64
72278;BMP280;61204;49.980;8.358;2023-03-04T13:42:47;101229.09;;;9.41
72278;BMP280;61204;49.980;8.358;2023-03-04T13:48:25;101222.69;;;9.46
72278;BMP280;61204;49.980;8.358;2023-03-04T13:51:00;101232.84;;;9.13
72278;BMP280;61204;49.980;8.358;2023-03-04T13:53:36;101226.47;;;9.03
72278;BMP280;61204;49.980;8.358;2023-03-04T13:56:22;101223.00;;;8.95
72278;BMP280;61204;49.980;8.358;2023-03-04T13:59:08;101225.91;;;8.97
72278;BMP280;61204;49.980;8.358;2023-03-04T14:04:10;101221.91;;;9.06
72278;BMP280;61204;49.980;8.358;2023-03-04T14:06:43;101217.66;;;9.20
72278;BMP280;61204;49.980;8.358;2023-03-04T14:09:12;101218.06;;;9.09
72278;BMP280;61204;49.980;8.358;2023-03-04T14:11:39;101214.22;;;8.96
72278;BMP280;61204;49.980;8.358;2023-03-04T14:14:11;101210.28;;;8.75
72278;BMP280;61204;49.980;8.358;2023-03-04T14:16:45;101213.91;;;8.85
72278;BMP280;61204;49.980;8.358;2023-03-04T14:19:18;101207.72;;;8.69
72278;BMP280;61204;49.980;8.358;2023-03-04T14:22:02;101207.19;;;8.70
72278;BMP280;61204;49.980;8.358;2023-03-04T14:24:58;101203.19;;;8.64
72278;BMP280;61204;49.980;8.358;2023-03-04T14:27:47;101193.31;;;8.68
72278;BMP280;61204;49.980;8.358;2023-03-04T14:30:25;101194.25;;;8.40
72278;BMP280;61204;49.980;8.358;2023-03-04T14:32:53;101190.72;;;8.17
72278;BMP280;61204;49.980;8.358;2023-03-04T14:35:26;101185.66;;;8.29
72278;BMP280;61204;49.980;8.358;2023-03-04T14:40:40;101185.28;;;8.32
72278;BMP280;61204;49.980;8.358;2023-03-04T14:43:13;101171.09;;;8.18
72278;BMP280;61204;49.980;8.358;2023-03-04T14:45:44;101175.66;;;8.31
72278;BMP280;61204;49.980;8.358;2023-03-04T14:48:17;101175.84;;;8.41
72278;BMP280;61204;49.980;8.358;2023-03-04T14:50:53;101168.56;;;8.36
72278;BMP280;61204;49.980;8.358;2023-03-04T14:53:22;101167.63;;;8.49
72278;BMP280;61204;49.980;8.358;2023-03-04T14:55:57;101164.34;;;8.42
72278;BMP280;61204;49.980;8.358;2023-03-04T14:58:36;101165.81;;;8.43
72278;BMP280;61204;49.980;8.358;2023-03-04T15:06:25;101161.25;;;8.54
72278;BMP280;61204;49.980;8.358;2023-03-04T15:11:29;101165.63;;;8.41
72278;BMP280;61204;49.980;8.358;2023-03-04T15:19:57;101159.97;;;8.55
72278;BMP280;61204;49.980;8.358;2023-03-04T15:25:12;101149.06;;;8.24
72278;BMP280;61204;49.980;8.358;2023-03-04T15:27:40;101153.97;;;8.26
72278;BMP280;61204;49.980;8.358;2023-03-04T15:30:13;101144.66;;;8.29
72278;BMP280;61204;49.980;8.358;2023-03-04T15:32:45;101149.22;;;8.26
72278;BMP280;61204;49.980;8.358;2023-03-04T15:35:12;101144.50;;;8.19
72278;BMP280;61204;49.980;8.358;2023-03-04T15:37:40;101147.78;;;8.10
72278;BMP280;61204;49.980;8.358;2023-03-04T15:40:11;101137.03;;;8.12
72278;BMP280;61204;49.980;8.358;2023-03-04T15:42:44;101139.22;;;8.13
72278;BMP280;61204;49.980;8.358;2023-03-04T15:45:23;101134.84;;;8.03
72278;BMP280;61204;49.980;8.358;2023-03-04T15:47:56;101129.53;;;8.05
72278;BMP280;61204;49.980;8.358;2023-03-04T15:50:27;101138.66;;;8.07
72278;BMP280;61204;49.980;8.358;2023-03-04T15:52:58;101139.94;;;8.06
72278;BMP280;61204;49.980;8.358;2023-03-04T15:55:27;101141.41;;;8.07
72278;BMP280;61204;49.980;8.358;2023-03-04T15:57:56;101139.03;;;8.04
72278;BMP280;61204;49.980;8.358;2023-03-04T16:00:24;101138.81;;;7.94
72278;BMP280;61204;49.980;8.358;2023-03-04T16:02:50;101139.72;;;7.89
72278;BMP280;61204;49.980;8.358;2023-03-04T16:05:16;101140.28;;;7.80
72278;BMP280;61204;49.980;8.358;2023-03-04T16:07:45;101143.72;;;7.80
72278;BMP280;61204;49.980;8.358;2023-03-04T16:10:19;101144.25;;;7.79
72278;BMP280;61204;49.980;8.358;2023-03-04T16:12:50;101147.94;;;7.97
72278;BMP280;61204;49.980;8.358;2023-03-04T16:15:19;101131.75;;;7.91
72278;BMP280;61204;49.980;8.358;2023-03-04T16:17:47;101136.63;;;7.85
72278;BMP280;61204;49.980;8.358;2023-03-04T16:20:15;101136.22;;;7.73
72278;BMP280;61204;49.980;8.358;2023-03-04T16:22:52;101133.66;;;7.68
72278;BMP280;61204;49.980;8.358;2023-03-04T16:25:25;101127.16;;;7.78
72278;BMP280;61204;49.980;8.358;2023-03-04T16:27:53;101126.03;;;7.74
72278;BMP280;61204;49.980;8.358;2023-03-04T16:30:26;101132.94;;;7.67
72278;BMP280;61204;49.980;8.358;2023-03-04T16:32:52;101127.16;;;7.78
72278;BMP280;61204;49.980;8.358;2023-03-04T16:35:18;101126.38;;;7.62
72278;BMP280;61204;49.980;8.358;2023-03-04T16:37:52;101129.97;;;7.50
72278;BMP280;61204;49.980;8.358;2023-03-04T16:40:19;101123.78;;;7.49
72278;BMP280;61204;49.980;8.358;2023-03-04T16:42:49;101127.63;;;7.46
72278;BMP280;61204;49.980;8.358;2023-03-04T16:45:22;101127.81;;;7.56